Time;durP1;ratioP1;P1;durP2;ratioP2;P2;SDS_P1;SDS_P2;PMS_P1;PMS_P2;Temp;Humidity;BMP_temperature;BMP_pressure;BME280_temperature;BME280_humidity;BME280_pressure;Samples;Min_cycle;Max_cycle;Signal;HPM_P1;HPM_P2
2023/09/22 00:02:19;;;;;;;;;;;;;;;22.74;51.45;99054.91;5076019;28;19912;-67
2023/09/22 00:04:44;;;;;;;;;;;;;;;22.61;51.99;99040.97;5076182;28;19912;-67
2023/09/22 00:07:09;;;;;;;;;;;;;;;22.59;52.28;99047.88;5076504;28;19920;-67
2023/09/22 00:09:35;;;;;;;;;;;;;;;22.57;52.27;99052.84;5074940;28;20309;-67
2023/09/22 00:12:00;;;;;;;;;;;;;;;22.53;52.57;99060.84;5070640;28;19912;-67
2023/09/22 00:14:26;;;;;;;;;;;;;;;22.57;52.60;99061.06;5075679;28;20258;-67
2023/09/22 00:16:52;;;;;;;;;;;;;;;22.52;51.57;99061.97;5071965;28;20334;-67
2023/09/22 00:19:17;;;;;;;;;;;;;;;22.52;52.55;99061.97;5096245;28;19912;-67
2023/09/22 00:21:42;;;;;;;;;;;;;;;22.52;52.94;99042.00;5096423;28;20002;-67
2023/09/22 00:24:08;;;;;;;;;;;;;;;22.53;52.72;99013.50;5070605;28;19918;-67
2023/09/22 00:26:33;;;;;;;;;;;;;;;22.54;52.73;99037.84;5075781;28;19912;-67
2023/09/22 00:28:59;;;;;;;;;;;;;;;22.46;51.84;99043.25;5084146;28;19912;-67
2023/09/22 00:31:25;;;;;;;;;;;;;;;22.96;51.62;99013.88;5075658;28;20007;-67
2023/09/22 00:33:51;;;;;;;;;;;;;;;22.52;52.46;99045.53;5075355;28;19912;-67
2023/09/22 00:36:17;;;;;;;;;;;;;;;22.32;51.96;99081.56;5075224;28;19917;-67
2023/09/22 00:38:42;;;;;;;;;;;;;;;22.32;52.68;99051.47;5074882;28;20322;-67
2023/09/22 00:41:11;;;;;;;;;;;;;;;22.38;52.96;99039.28;5075021;28;19921;-67
2023/09/22 00:43:37;;;;;;;;;;;;;;;22.43;52.81;99036.44;5075319;28;19973;-67
2023/09/22 00:46:02;;;;;;;;;;;;;;;22.47;53.00;99017.50;5075166;28;19973;-66
2023/09/22 00:48:28;;;;;;;;;;;;;;;22.48;52.85;99030.88;5075358;28;19916;-66
2023/09/22 00:50:55;;;;;;;;;;;;;;;22.47;52.64;99021.03;5075064;28;19912;-66
2023/09/22 00:53:23;;;;;;;;;;;;;;;22.51;52.98;99002.91;5074983;28;20357;-66
2023/09/22 00:55:50;;;;;;;;;;;;;;;22.51;52.25;98985.66;5084033;28;19916;-66
2023/09/22 00:58:16;;;;;;;;;;;;;;;22.52;52.36;98981.81;5095469;28;19939;-67
2023/09/22 01:00:47;;;;;;;;;;;;;;;22.53;52.74;98962.34;5095359;28;20341;-67
2023/09/22 01:03:12;;;;;;;;;;;;;;;22.54;52.62;98947.53;5077987;28;19917;-67
2023/09/22 01:05:37;;;;;;;;;;;;;;;22.64;52.61;98935.56;5074922;28;19958;-67
2023/09/22 01:08:03;;;;;;;;;;;;;;;22.61;52.42;98947.91;5074491;28;19920;-66
2023/09/22 01:10:35;;;;;;;;;;;;;;;22.40;50.69;98983.16;5074904;28;19916;-66
2023/09/22 01:13:00;;;;;;;;;;;;;;;22.24;51.87;98990.06;5074727;28;19919;-66
2023/09/22 01:15:25;;;;;;;;;;;;;;;22.31;52.68;98959.59;5076881;28;19913;-66
2023/09/22 01:17:51;;;;;;;;;;;;;;;22.39;52.43;98951.44;5094817;28;19916;-66
2023/09/22 01:20:17;;;;;;;;;;;;;;;22.44;52.27;98936.84;5088269;28;20328;-66
2023/09/22 01:22:42;;;;;;;;;;;;;;;22.45;52.10;98929.44;5074808;28;19955;-66
2023/09/22 01:25:07;;;;;;;;;;;;;;;22.49;52.37;98934.00;5074592;28;19912;-66
2023/09/22 01:27:33;;;;;;;;;;;;;;;22.54;52.44;98930.31;5063173;28;19913;-66
2023/09/22 01:29:58;;;;;;;;;;;;;;;22.54;52.10;98930.31;5076676;28;19923;-66
2023/09/22 01:32:23;;;;;;;;;;;;;;;22.55;52.28;98924.53;5074171;28;19973;-66
2023/09/22 01:34:49;;;;;;;;;;;;;;;22.54;52.15;98908.44;5074091;28;19912;-66
2023/09/22 01:37:17;;;;;;;;;;;;;;;22.54;51.89;98909.25;5074288;28;20373;-66
2023/09/22 01:39:42;;;;;;;;;;;;;;;22.57;52.14;98905.88;5074008;28;19912;-66
2023/09/22 01:42:08;;;;;;;;;;;;;;;22.58;52.25;98895.75;5074380;28;19919;-66
2023/09/22 01:44:33;;;;;;;;;;;;;;;22.56;52.31;98890.56;5074056;28;20266;-67
2023/09/22 01:46:58;;;;;;;;;;;;;;;22.56;52.48;98892.50;5074320;28;19913;-67
2023/09/22 01:49:24;;;;;;;;;;;;;;;22.57;52.19;98885.94;5074137;28;20308;-67
2023/09/22 01:51:49;;;;;;;;;;;;;;;22.50;51.77;98891.84;5073885;28;19954;-66
2023/09/22 01:54:15;;;;;;;;;;;;;;;22.52;51.85;98894.25;5073497;28;20007;-66
2023/09/22 01:56:40;;;;;;;;;;;;;;;22.47;51.60;98886.97;5090857;28;19916;-66
2023/09/22 01:59:06;;;;;;;;;;;;;;;22.50;52.15;98875.41;5094346;28;20368;-66
2023/09/22 02:01:33;;;;;;;;;;;;;;;22.53;51.63;98877.53;5090817;28;19920;-67
2023/09/22 02:03:58;;;;;;;;;;;;;;;22.51;51.94;98877.06;5073774;28;19913;-66
2023/09/22 02:06:23;;;;;;;;;;;;;;;22.56;51.98;98863.22;5073945;28;19912;-66
2023/09/22 02:08:49;;;;;;;;;;;;;;;22.52;51.83;98864.97;5073172;28;19943;-66
2023/09/22 02:11:14;;;;;;;;;;;;;;;22.52;52.03;98850.50;5073389;28;19912;-66
2023/09/22 02:13:40;;;;;;;;;;;;;;;22.49;51.42;98841.00;5073527;28;19912;-66
2023/09/22 02:16:05;;;;;;;;;;;;;;;22.51;51.71;98827.81;5078241;28;19973;-66
2023/09/22 02:18:31;;;;;;;;;;;;;;;22.50;51.18;98825.38;5073397;28;19927;-66
2023/09/22 02:20:56;;;;;;;;;;;;;;;22.50;51.99;98822.63;5073523;28;19919;-65
2023/09/22 02:23:21;;;;;;;;;;;;;;;22.50;52.15;98809.75;5073452;28;20442;-65
2023/09/22 02:25:47;;;;;;;;;;;;;;;22.49;51.72;98810.06;5074137;28;19912;-65
2023/09/22 02:28:12;;;;;;;;;;;;;;;22.52;51.85;98795.78;5082385;28;19912;-66
2023/09/22 02:30:37;;;;;;;;;;;;;;;22.52;51.94;98799.31;5073710;28;19913;-66
2023/09/22 02:33:03;;;;;;;;;;;;;;;22.47;51.71;98784.97;5073820;28;19963;-66
2023/09/22 02:35:28;;;;;;;;;;;;;;;22.46;51.51;98786.09;5073426;28;20280;-67
2023/09/22 02:37:54;;;;;;;;;;;;;;;22.47;51.76;98782.22;5073408;28;19924;-66
2023/09/22 02:40:19;;;;;;;;;;;;;;;22.45;51.85;98768.84;5055580;28;20369;-66
2023/09/22 02:42:44;;;;;;;;;;;;;;;22.43;51.66;98779.31;5073619;28;19913;-66
2023/09/22 02:45:10;;;;;;;;;;;;;;;22.42;51.70;98773.03;5073694;28;19916;-66
2023/09/22 02:47:40;;;;;;;;;;;;;;;22.42;51.50;98772.22;5073801;28;19927;-66
2023/09/22 02:50:10;;;;;;;;;;;;;;;22.39;52.00;98775.59;5073694;28;19912;-66
2023/09/22 02:52:35;;;;;;;;;;;;;;;22.38;51.53;98772.06;5073400;28;19912;-66
2023/09/22 02:55:00;;;;;;;;;;;;;;;22.41;51.77;98773.34;5075775;28;19919;-66
2023/09/22 02:57:26;;;;;;;;;;;;;;;22.37;51.61;98751.28;5093624;28;19963;-66
2023/09/22 02:59:53;;;;;;;;;;;;;;;22.33;51.40;98763.97;5085845;28;19920;-66
2023/09/22 03:02:19;;;;;;;;;;;;;;;22.24;51.71;98768.56;5063968;28;19967;-66
2023/09/22 03:04:44;;;;;;;;;;;;;;;22.26;51.79;98749.13;5061987;28;19956;-66
2023/09/22 03:07:10;;;;;;;;;;;;;;;22.25;52.15;98734.63;5077441;28;19920;-66
2023/09/22 03:09:36;;;;;;;;;;;;;;;22.24;52.09;98744.75;5077291;28;19935;-65
2023/09/22 03:12:02;;;;;;;;;;;;;;;21.86;52.06;98779.88;5077198;28;19955;-65
2023/09/22 03:14:27;;;;;;;;;;;;;;;21.64;52.39;98767.03;5077233;28;19917;-65
2023/09/22 03:16:53;;;;;;;;;;;;;;;21.66;53.25;98742.91;5091674;28;19920;-66
2023/09/22 03:19:19;;;;;;;;;;;;;;;21.66;52.97;98742.91;5096967;28;19912;-66
2023/09/22 03:21:44;;;;;;;;;;;;;;;21.24;56.12;98773.03;5079321;28;19912;-65
2023/09/22 03:24:10;;;;;;;;;;;;;;;21.11;55.12;98760.22;5062624;28;19930;-65
2023/09/22 03:26:35;;;;;;;;;;;;;;;21.06;55.54;98763.88;5062553;28;20007;-66
2023/09/22 03:29:01;;;;;;;;;;;;;;;20.88;57.21;98734.78;5043696;28;19965;-66
2023/09/22 03:31:26;;;;;;;;;;;;;;;20.72;59.42;98771.66;5042907;28;20372;-66
2023/09/22 03:33:52;;;;;;;;;;;;;;;20.65;57.54;98753.78;5042612;28;19954;-65
2023/09/22 03:36:19;;;;;;;;;;;;;;;20.72;57.75;98758.81;5058709;28;20280;-66
2023/09/22 03:38:48;;;;;;;;;;;;;;;20.79;56.85;98759.22;5076871;28;19912;-66
2023/09/22 03:41:15;;;;;;;;;;;;;;;20.85;56.29;98752.56;5076642;28;19948;-66
2023/09/22 03:43:45;;;;;;;;;;;;;;;20.88;56.76;98743.75;5059429;28;20293;-66
2023/09/22 03:46:10;;;;;;;;;;;;;;;20.98;56.91;98750.94;5058915;28;19927;-66
2023/09/22 03:48:39;;;;;;;;;;;;;;;20.94;55.60;98766.31;5058741;28;20316;-66
2023/09/22 03:51:05;;;;;;;;;;;;;;;20.97;56.20;98773.88;5076712;28;19920;-66
2023/09/22 03:53:30;;;;;;;;;;;;;;;21.03;55.98;98769.13;5076193;28;19917;-66
2023/09/22 03:55:55;;;;;;;;;;;;;;;21.03;55.65;98782.78;5062712;28;20276;-66
2023/09/22 03:58:21;;;;;;;;;;;;;;;21.03;56.05;98785.50;5076426;28;19923;-66
2023/09/22 04:00:46;;;;;;;;;;;;;;;20.95;54.68;98776.13;5076386;28;19913;-66
2023/09/22 04:03:13;;;;;;;;;;;;;;;21.07;55.99;98767.41;5075903;28;19920;-67
2023/09/22 04:05:41;;;;;;;;;;;;;;;21.14;55.96;98767.00;5076195;28;20341;-66
2023/09/22 04:08:07;;;;;;;;;;;;;;;21.18;55.50;98773.47;5075916;28;19948;-66
2023/09/22 04:10:32;;;;;;;;;;;;;;;21.21;55.91;98762.75;5067595;28;19948;-66
2023/09/22 04:12:57;;;;;;;;;;;;;;;21.24;55.55;98756.66;5056179;28;20274;-66
2023/09/22 04:15:23;;;;;;;;;;;;;;;21.24;54.95;98766.78;5059330;28;19961;-67
2023/09/22 04:17:50;;;;;;;;;;;;;;;21.15;54.99;98758.47;5096387;28;19924;-67
2023/09/22 04:20:18;;;;;;;;;;;;;;;21.18;55.37;98754.34;5096461;28;19912;-67
2023/09/22 04:22:43;;;;;;;;;;;;;;;21.24;55.23;98764.03;5096102;28;20379;-67
2023/09/22 04:25:11;;;;;;;;;;;;;;;21.24;54.89;98778.50;5078864;28;19913;-67
2023/09/22 04:27:43;;;;;;;;;;;;;;;21.23;55.25;98763.25;5082857;28;19959;-67
2023/09/22 04:30:15;;;;;;;;;;;;;;;21.30;55.61;98767.47;5096176;28;19916;-67
2023/09/22 04:32:41;;;;;;;;;;;;;;;21.32;55.36;98776.16;5095975;28;19920;-67
2023/09/22 04:35:07;;;;;;;;;;;;;;;21.33;55.44;98777.78;5096234;28;20284;-67
2023/09/22 04:37:32;;;;;;;;;;;;;;;21.29;55.35;98765.88;5096488;28;20007;-67
2023/09/22 04:39:58;;;;;;;;;;;;;;;21.27;54.84;98777.09;5096357;28;19912;-67
2023/09/22 04:42:23;;;;;;;;;;;;;;;21.25;55.20;98761.00;5096341;28;19927;-67
2023/09/22 04:44:50;;;;;;;;;;;;;;;21.26;55.12;98751.69;5096242;28;19912;-67
2023/09/22 04:47:15;;;;;;;;;;;;;;;21.33;55.38;98753.22;5096531;28;19912;-66
2023/09/22 04:49:40;;;;;;;;;;;;;;;21.34;55.12;98747.44;5087081;28;19985;-67
2023/09/22 04:52:06;;;;;;;;;;;;;;;21.27;54.07;98756.03;5057974;28;19936;-66
2023/09/22 04:54:31;;;;;;;;;;;;;;;21.16;54.17;98753.84;5075331;28;19917;-66
2023/09/22 04:56:57;;;;;;;;;;;;;;;21.12;53.86;98774.66;5092545;28;19927;-66
2023/09/22 04:59:23;;;;;;;;;;;;;;;21.17;55.23;98771.84;5076031;28;19971;-66
2023/09/22 05:01:49;;;;;;;;;;;;;;;21.21;55.02;98761.91;5068498;28;20367;-66
2023/09/22 05:04:14;;;;;;;;;;;;;;;21.20;54.83;98739.28;5055851;28;20000;-66
2023/09/22 05:06:43;;;;;;;;;;;;;;;21.18;55.07;98737.97;5058147;28;19913;-66
2023/09/22 05:09:08;;;;;;;;;;;;;;;21.21;54.82;98738.16;5057745;28;19921;-66
2023/09/22 05:11:34;;;;;;;;;;;;;;;21.21;54.87;98745.53;5057766;28;19935;-66
2023/09/22 05:13:59;;;;;;;;;;;;;;;21.19;55.00;98764.97;5055112;28;19913;-66
2023/09/22 05:16:25;;;;;;;;;;;;;;;21.18;54.69;98766.06;5075466;28;20014;-66
2023/09/22 05:18:50;;;;;;;;;;;;;;;21.20;55.06;98773.97;5095235;28;20364;-66
2023/09/22 05:21:15;;;;;;;;;;;;;;;21.20;54.35;98780.22;5078978;28;19912;-67
2023/09/22 05:23:41;;;;;;;;;;;;;;;21.21;54.82;98779.13;5074802;28;19916;-66
2023/09/22 05:26:07;;;;;;;;;;;;;;;21.17;54.22;98780.84;5074774;28;19912;-66
2023/09/22 05:28:33;;;;;;;;;;;;;;;21.18;54.71;98776.19;5083237;28;19913;-67
2023/09/22 05:30:59;;;;;;;;;;;;;;;21.17;54.45;98782.75;5074809;28;19912;-67
2023/09/22 05:33:24;;;;;;;;;;;;;;;21.07;54.19;98792.78;5074548;28;19987;-67
2023/09/22 05:35:49;;;;;;;;;;;;;;;21.05;54.75;98780.56;5074795;28;19955;-67
2023/09/22 05:38:16;;;;;;;;;;;;;;;21.00;53.56;98786.09;5074295;28;19977;-66
2023/09/22 05:40:41;;;;;;;;;;;;;;;20.99;54.21;98793.50;5074632;28;20529;-66
2023/09/22 05:43:10;;;;;;;;;;;;;;;21.02;54.91;98786.59;5074343;28;19983;-66
2023/09/22 05:45:36;;;;;;;;;;;;;;;21.08;54.81;98786.22;5074860;28;19913;-67
2023/09/22 05:48:01;;;;;;;;;;;;;;;21.10;54.73;98780.44;5075038;28;19916;-66
2023/09/22 05:50:27;;;;;;;;;;;;;;;21.15;55.11;98779.53;5074657;28;20365;-66
2023/09/22 05:52:52;;;;;;;;;;;;;;;21.15;55.03;98785.78;5074488;28;20050;-67
2023/09/22 05:55:18;;;;;;;;;;;;;;;21.15;54.89;98798.63;5073856;28;20365;-67
2023/09/22 05:57:43;;;;;;;;;;;;;;;21.18;55.38;98796.09;5074620;28;20699;-67
2023/09/22 06:00:18;;;;;;;;;;;;;;;21.16;54.94;98795.59;5074644;28;19999;-67
2023/09/22 06:02:47;;;;;;;;;;;;;;;21.10;54.96;98794.09;5057741;28;20034;-66
2023/09/22 06:05:13;;;;;;;;;;;;;;;21.08;55.20;98788.16;5054676;28;19964;-66
2023/09/22 06:07:38;;;;;;;;;;;;;;;21.10;55.20;98793.28;5053960;28;19981;-66
2023/09/22 06:10:05;;;;;;;;;;;;;;;21.08;55.20;98782.69;5059149;28;19991;-66
2023/09/22 06:12:31;;;;;;;;;;;;;;;21.09;54.80;98792.47;5056363;28;19977;-67
2023/09/22 06:14:59;;;;;;;;;;;;;;;21.05;55.13;98792.28;5074116;28;20373;-66
2023/09/22 06:17:25;;;;;;;;;;;;;;;21.10;55.28;98794.09;5077072;28;19916;-66
2023/09/22 06:19:50;;;;;;;;;;;;;;;21.06;54.66;98799.34;5074027;28;19919;-66
2023/09/22 06:22:15;;;;;;;;;;;;;;;21.06;55.47;98801.25;5074155;28;20486;-67
2023/09/22 06:24:40;;;;;;;;;;;;;;;21.06;54.98;98817.63;5073928;28;19912;-66
2023/09/22 06:27:07;;;;;;;;;;;;;;;21.02;54.21;98802.97;5076908;28;19912;-66
2023/09/22 06:29:32;;;;;;;;;;;;;;;20.96;54.29;98802.28;5079050;28;20372;-66
2023/09/22 06:31:57;;;;;;;;;;;;;;;20.93;54.38;98797.44;5073595;28;19912;-66
2023/09/22 06:34:22;;;;;;;;;;;;;;;20.95;54.81;98794.38;5056510;28;19924;-66
2023/09/22 06:36:48;;;;;;;;;;;;;;;20.93;54.17;98794.72;5073325;28;19916;-65
2023/09/22 06:39:13;;;;;;;;;;;;;;;20.81;54.62;98816.22;5073732;28;19913;-65
2023/09/22 06:41:39;;;;;;;;;;;;;;;20.82;54.36;98842.38;5073666;28;19918;-65
2023/09/22 06:44:04;;;;;;;;;;;;;;;20.66;54.40;98834.50;5073792;28;19919;-65
2023/09/22 06:46:35;;;;;;;;;;;;;;;20.68;54.56;98831.47;5074117;28;19913;-66
2023/09/22 06:49:01;;;;;;;;;;;;;;;20.68;54.71;98832.28;5073807;28;19958;-66
2023/09/22 06:51:27;;;;;;;;;;;;;;;20.69;54.08;98820.25;5073669;28;19917;-66
2023/09/22 06:53:53;;;;;;;;;;;;;;;20.78;55.22;98823.09;5072989;28;19921;-66
2023/09/22 06:56:21;;;;;;;;;;;;;;;20.74;54.36;98818.53;5085932;28;19916;-67
2023/09/22 06:58:47;;;;;;;;;;;;;;;20.87;55.39;98826.72;5062382;28;20384;-66
2023/09/22 07:01:13;;;;;;;;;;;;;;;20.95;55.26;98846.25;5070182;28;19948;-66
2023/09/22 07:03:42;;;;;;;;;;;;;;;20.97;54.54;98855.75;5053839;28;19912;-67
2023/09/22 07:06:09;;;;;;;;;;;;;;;20.90;53.88;98852.63;5053848;28;20028;-66
2023/09/22 07:08:34;;;;;;;;;;;;;;;20.86;54.26;98870.72;5063463;28;19922;-65
2023/09/22 07:11:03;;;;;;;;;;;;;;;20.87;55.03;98866.84;5061318;28;19967;-65
2023/09/22 07:13:29;;;;;;;;;;;;;;;20.88;55.02;98871.22;5072816;28;19962;-65
2023/09/22 07:15:59;;;;;;;;;;;;;;;20.87;54.76;98866.84;5079782;28;19919;-65
2023/09/22 07:18:25;;;;;;;;;;;;;;;20.85;54.94;98852.72;5093253;28;19916;-66
2023/09/22 07:20:51;;;;;;;;;;;;;;;20.90;55.31;98857.28;5085135;28;20419;-65
2023/09/22 07:23:16;;;;;;;;;;;;;;;20.94;54.95;98844.66;5073055;28;19916;-66
2023/09/22 07:25:41;;;;;;;;;;;;;;;20.97;55.00;98839.38;5073035;28;19916;-65
2023/09/22 07:28:08;;;;;;;;;;;;;;;21.00;55.01;98833.31;5081803;28;20444;-64
2023/09/22 07:30:34;;;;;;;;;;;;;;;21.05;54.81;98825.03;5072643;28;19912;-65
2023/09/22 07:33:00;;;;;;;;;;;;;;;21.09;55.08;98814.31;5073044;28;19912;-63
2023/09/22 07:35:25;;;;;;;;;;;;;;;21.11;55.03;98803.88;5071963;28;20590;-64
2023/09/22 07:37:50;;;;;;;;;;;;;;;21.13;55.12;98814.50;5072001;28;19924;-64
2023/09/22 07:40:16;;;;;;;;;;;;;;;21.17;55.03;98813.63;5072639;28;19936;-64
2023/09/22 07:42:41;;;;;;;;;;;;;;;21.11;54.10;98820.28;5072472;28;19928;-64
2023/09/22 07:45:07;;;;;;;;;;;;;;;21.10;54.92;98831.50;5072638;28;19927;-64
2023/09/22 07:47:34;;;;;;;;;;;;;;;21.10;54.82;98826.84;5072723;28;19916;-64
2023/09/22 07:50:00;;;;;;;;;;;;;;;21.12;54.40;98834.72;5075343;28;19913;-64
2023/09/22 07:52:26;;;;;;;;;;;;;;;21.15;54.91;98839.59;5075923;28;20019;-64
2023/09/22 07:54:52;;;;;;;;;;;;;;;21.15;54.73;98847.78;5077401;28;19912;-64
2023/09/22 07:57:17;;;;;;;;;;;;;;;21.12;53.94;98848.38;5096140;28;19923;-64
2023/09/22 07:59:42;;;;;;;;;;;;;;;21.11;54.31;98850.31;5096153;28;20002;-64
2023/09/22 08:02:08;;;;;;;;;;;;;;;21.12;54.23;98865.56;5087941;28;19947;-64
2023/09/22 08:04:33;;;;;;;;;;;;;;;21.12;53.88;98864.75;5076076;28;20258;-64
2023/09/22 08:06:59;;;;;;;;;;;;;;;21.12;54.23;98870.22;5075893;28;20023;-64
2023/09/22 08:09:28;;;;;;;;;;;;;;;21.11;52.58;98868.59;5075602;28;20420;-64
2023/09/22 08:11:53;;;;;;;;;;;;;;;21.09;54.24;98879.81;5055774;28;19912;-64
2023/09/22 08:14:21;;;;;;;;;;;;;;;21.10;53.93;98878.72;5055930;28;20434;-64
2023/09/22 08:16:47;;;;;;;;;;;;;;;21.11;54.04;98880.31;5082033;28;19927;-63
2023/09/22 08:19:12;;;;;;;;;;;;;;;21.21;54.79;98877.41;5096184;28;19916;-64
2023/09/22 08:21:38;;;;;;;;;;;;;;;21.20;54.72;98883.97;5096223;28;19919;-64
2023/09/22 08:24:04;;;;;;;;;;;;;;;21.21;54.36;98882.88;5095950;28;19973;-63
2023/09/22 08:26:31;;;;;;;;;;;;;;;21.23;54.62;98877.91;5096061;28;20365;-64
2023/09/22 08:28:56;;;;;;;;;;;;;;;21.22;54.24;98878.22;5077438;28;20373;-64
2023/09/22 08:31:21;;;;;;;;;;;;;;;21.24;54.37;98878.72;5075740;28;20011;-63
2023/09/22 08:33:47;;;;;;;;;;;;;;;21.27;54.57;98878.91;5075886;28;19961;-63
2023/09/22 08:36:12;;;;;;;;;;;;;;;21.28;53.80;98871.53;5075460;28;19935;-64
2023/09/22 08:38:38;;;;;;;;;;;;;;;21.30;53.65;98860.31;5075783;28;19912;-64
2023/09/22 08:41:03;;;;;;;;;;;;;;;21.28;53.88;98857.88;5075345;28;19919;-64
2023/09/22 08:43:29;;;;;;;;;;;;;;;21.32;54.24;98847.97;5075421;28;19924;-64
2023/09/22 08:45:55;;;;;;;;;;;;;;;21.32;54.17;98869.00;5075258;28;19912;-64
2023/09/22 08:48:24;;;;;;;;;;;;;;;21.37;53.79;98856.06;5075397;28;20004;-64
2023/09/22 08:50:49;;;;;;;;;;;;;;;21.41;53.63;98851.63;5064476;28;19912;-64
2023/09/22 08:53:14;;;;;;;;;;;;;;;21.43;53.63;98854.03;5052201;28;20369;-64
2023/09/22 08:55:40;;;;;;;;;;;;;;;21.47;52.83;98852.34;5074732;28;19934;-64
2023/09/22 08:58:05;;;;;;;;;;;;;;;21.48;53.40;98848.50;5074908;28;20399;-64
2023/09/22 09:00:30;;;;;;;;;;;;;;;21.50;52.99;98850.91;5073990;28;19912;-64
2023/09/22 09:02:57;;;;;;;;;;;;;;;21.53;53.66;98847.59;5056905;28;19916;-64
2023/09/22 09:05:29;;;;;;;;;;;;;;;21.54;53.68;98846.44;5074694;28;19961;-64
2023/09/22 09:07:56;;;;;;;;;;;;;;;21.56;53.45;98844.22;5074624;28;19934;-64
2023/09/22 09:10:50;;;;;;;;;;;;;;;21.56;53.56;98839.59;5067585;28;19923;-64
2023/09/22 09:13:19;;;;;;;;;;;;;;;21.60;53.63;98847.94;5054095;28;20361;-64
2023/09/22 09:15:45;;;;;;;;;;;;;;;21.63;53.66;98841.88;5064005;28;19965;-64
2023/09/22 09:18:18;;;;;;;;;;;;;;;21.66;53.96;98844.00;5094871;28;20380;-64
2023/09/22 09:20:44;;;;;;;;;;;;;;;21.71;53.77;98821.22;5094800;28;19912;-64
2023/09/22 09:23:12;;;;;;;;;;;;;;;21.76;53.38;98824.66;5094802;28;20284;-64
2023/09/22 09:25:42;;;;;;;;;;;;;;;21.79;53.70;98817.78;5095147;28;19912;-64
2023/09/22 09:28:08;;;;;;;;;;;;;;;21.80;53.12;98813.91;5083373;28;19912;-64
2023/09/22 09:30:33;;;;;;;;;;;;;;;21.88;53.59;98809.63;5074291;28;19912;-64
2023/09/22 09:33:12;;;;;;;;;;;;;;;21.99;54.01;98811.81;5074455;28;19999;-64
2023/09/22 09:35:38;;;;;;;;;;;;;;;22.07;53.62;98804.00;5074636;28;19919;-64
2023/09/22 09:38:04;;;;;;;;;;;;;;;22.08;52.89;98806.41;5074515;28;19916;-64
2023/09/22 09:40:30;;;;;;;;;;;;;;;22.10;53.03;98814.28;5074219;28;19959;-64
2023/09/22 09:42:58;;;;;;;;;;;;;;;22.15;52.21;98819.66;5074046;28;19968;-65
2023/09/22 09:45:24;;;;;;;;;;;;;;;22.18;53.07;98825.31;5074286;28;19999;-65
2023/09/22 09:47:53;;;;;;;;;;;;;;;22.20;52.96;98833.19;5073749;28;20007;-64
2023/09/22 09:50:20;;;;;;;;;;;;;;;22.23;52.89;98836.13;5074038;28;19962;-64
2023/09/22 09:52:59;;;;;;;;;;;;;;;22.23;51.86;98851.69;5055898;28;19958;-64
2023/09/22 09:55:26;;;;;;;;;;;;;;;22.22;52.45;98859.09;5072981;28;19913;-64
2023/09/22 09:57:52;;;;;;;;;;;;;;;22.28;52.36;98867.22;5063975;28;19917;-64
2023/09/22 10:00:20;;;;;;;;;;;;;;;22.37;52.67;98868.09;5053833;28;19944;-64
2023/09/22 10:02:49;;;;;;;;;;;;;;;22.38;51.74;98862.31;5058361;28;19913;-64
2023/09/22 10:05:16;;;;;;;;;;;;;;;22.50;52.59;98869.94;5053517;28;19913;-64
2023/09/22 10:07:42;;;;;;;;;;;;;;;22.48;52.16;98876.88;5053247;28;20355;-64
2023/09/22 10:10:09;;;;;;;;;;;;;;;22.56;51.43;98868.69;5059171;28;19940;-64
2023/09/22 10:12:35;;;;;;;;;;;;;;;22.59;51.47;98867.28;5073458;28;19912;-64
2023/09/22 10:15:04;;;;;;;;;;;;;;;22.68;52.11;98873.59;5073558;28;19962;-65
2023/09/22 10:17:30;;;;;;;;;;;;;;;22.74;51.44;98880.56;5093040;28;19916;-65
2023/09/22 10:19:56;;;;;;;;;;;;;;;22.83;51.83;98880.59;5093721;28;19916;-65
2023/09/22 10:22:21;;;;;;;;;;;;;;;22.97;52.02;98875.03;5093774;28;20010;-65
2023/09/22 10:25:06;;;;;;;;;;;;;;;23.09;52.03;98878.03;5094167;28;19912;-65
2023/09/22 10:27:52;;;;;;;;;;;;;;;23.16;52.00;98880.28;5087151;28;19913;-65
2023/09/22 10:30:17;;;;;;;;;;;;;;;23.30;51.61;98886.47;5063970;28;20011;-65
2023/09/22 10:32:45;;;;;;;;;;;;;;;23.45;52.32;98882.47;5073714;28;20038;-65
2023/09/22 10:35:12;;;;;;;;;;;;;;;23.49;50.81;98883.47;5073601;28;19916;-65
2023/09/22 10:37:55;;;;;;;;;;;;;;;23.54;50.89;98896.22;5073495;28;19917;-65
2023/09/22 10:40:22;;;;;;;;;;;;;;;23.68;51.87;98885.94;5073936;28;20424;-65
2023/09/22 10:42:50;;;;;;;;;;;;;;;23.89;51.57;98877.13;5073540;28;20281;-64
2023/09/22 10:45:17;;;;;;;;;;;;;;;24.06;50.89;98893.56;5073607;28;19912;-64
2023/09/22 10:47:46;;;;;;;;;;;;;;;24.22;49.68;98896.66;5073205;28;19923;-64
2023/09/22 10:50:13;;;;;;;;;;;;;;;24.34;50.41;98896.78;5073436;28;19924;-64
2023/09/22 10:52:38;;;;;;;;;;;;;;;24.47;50.77;98900.50;5073187;28;19916;-64
2023/09/22 10:55:05;;;;;;;;;;;;;;;24.59;50.09;98902.63;5076403;28;19934;-64
2023/09/22 10:57:31;;;;;;;;;;;;;;;24.72;51.01;98912.63;5087717;28;19962;-64
2023/09/22 10:59:57;;;;;;;;;;;;;;;24.81;51.69;98914.53;5073425;28;19920;-65
2023/09/22 11:02:26;;;;;;;;;;;;;;;24.97;51.44;98918.38;5051791;28;19978;-65
2023/09/22 11:04:52;;;;;;;;;;;;;;;25.12;48.84;98900.53;5053114;28;19962;-65
2023/09/22 11:07:30;;;;;;;;;;;;;;;25.34;50.49;98902.25;5052958;28;20351;-65
2023/09/22 11:09:56;;;;;;;;;;;;;;;25.41;50.82;98901.75;5056798;28;19920;-65
2023/09/22 11:12:22;;;;;;;;;;;;;;;25.50;51.05;98902.47;5072957;28;20385;-65
2023/09/22 11:14:47;;;;;;;;;;;;;;;25.71;50.32;98904.50;5072910;28;19912;-65
2023/09/22 11:17:13;;;;;;;;;;;;;;;25.76;50.40;98907.84;5090025;28;19995;-65
2023/09/22 11:19:51;;;;;;;;;;;;;;;26.08;49.11;98905.56;5093026;28;19919;-65
2023/09/22 11:22:16;;;;;;;;;;;;;;;25.81;49.86;98907.63;5092994;28;19919;-65
2023/09/22 11:24:42;;;;;;;;;;;;;;;25.72;48.24;98904.13;5095847;28;19922;-65
2023/09/22 11:27:08;;;;;;;;;;;;;;;25.67;48.07;98902.41;5084475;28;20392;-65
2023/09/22 11:29:34;;;;;;;;;;;;;;;25.68;48.80;98904.00;5081940;28;20387;-65
2023/09/22 11:32:00;;;;;;;;;;;;;;;25.87;48.21;98911.00;5076528;28;19913;-64
2023/09/22 11:34:27;;;;;;;;;;;;;;;25.92;47.79;98915.50;5076581;28;19916;-65
2023/09/22 11:36:52;;;;;;;;;;;;;;;25.92;48.62;98924.59;5076601;28;19978;-65
2023/09/22 11:39:25;;;;;;;;;;;;;;;25.89;48.59;98934.28;5076296;28;19952;-65
2023/09/22 11:41:50;;;;;;;;;;;;;;;25.80;45.35;98935.50;5076359;28;19999;-65
2023/09/22 11:44:15;;;;;;;;;;;;;;;25.83;47.58;98945.81;5076206;28;20019;-65
2023/09/22 11:46:45;;;;;;;;;;;;;;;25.82;48.54;98944.22;5076103;28;19916;-66
2023/09/22 11:49:12;;;;;;;;;;;;;;;25.98;45.47;98939.75;5076406;28;19999;-65
2023/09/22 11:51:45;;;;;;;;;;;;;;;26.18;45.91;98940.13;5076000;28;19920;-65
2023/09/22 11:54:13;;;;;;;;;;;;;;;26.37;46.11;98936.88;5075466;28;19912;-65
2023/09/22 11:56:39;;;;;;;;;;;;;;;26.41;46.40;98935.88;5092654;28;19916;-65
2023/09/22 11:59:08;;;;;;;;;;;;;;;26.61;47.24;98930.72;5096466;28;19965;-65
2023/09/22 12:01:34;;;;;;;;;;;;;;;26.61;44.41;98889.41;5092536;28;19913;-65
2023/09/22 12:03:59;;;;;;;;;;;;;;;27.18;48.00;98929.13;5076130;28;19966;-65
2023/09/22 12:06:24;;;;;;;;;;;;;;;27.41;48.49;98926.75;5075872;28;19979;-65
2023/09/22 12:08:51;;;;;;;;;;;;;;;27.50;45.66;98927.44;5075721;28;19920;-65
2023/09/22 12:11:16;;;;;;;;;;;;;;;27.74;45.77;98929.41;5060999;28;19913;-65
2023/09/22 12:13:42;;;;;;;;;;;;;;;27.77;45.10;98939.75;5055619;28;19939;-65
2023/09/22 12:16:08;;;;;;;;;;;;;;;27.79;46.63;98955.97;5071337;28;19912;-65
2023/09/22 12:18:33;;;;;;;;;;;;;;;28.00;44.77;98951.13;5096243;28;19923;-65
2023/09/22 12:20:58;;;;;;;;;;;;;;;28.18;46.85;98957.19;5096153;28;19943;-65
2023/09/22 12:23:24;;;;;;;;;;;;;;;28.32;42.83;98964.28;5079917;28;19995;-65
2023/09/22 12:25:52;;;;;;;;;;;;;;;28.45;43.07;98962.28;5075744;28;19919;-65
2023/09/22 12:28:17;;;;;;;;;;;;;;;28.64;43.42;98956.97;5075650;28;19916;-65
2023/09/22 12:30:43;;;;;;;;;;;;;;;28.70;43.87;98961.06;5075716;28;19912;-65
2023/09/22 12:33:08;;;;;;;;;;;;;;;28.75;43.67;98960.00;5075516;28;19920;-65
2023/09/22 12:35:33;;;;;;;;;;;;;;;28.65;41.01;98957.75;5074267;28;20015;-65
2023/09/22 12:37:59;;;;;;;;;;;;;;;28.91;44.13;98954.53;5075463;28;19923;-65
2023/09/22 12:40:27;;;;;;;;;;;;;;;29.02;40.02;98952.84;5057395;28;20368;-65
2023/09/22 12:42:52;;;;;;;;;;;;;;;29.34;41.84;98959.22;5075130;28;19912;-65
2023/09/22 12:45:19;;;;;;;;;;;;;;;29.34;39.61;98959.22;5075635;28;19963;-65